CPX413 Details

Departure: Tulsa International Airport (KTUL)
Arrival: Miami International Airport (KMIA)
Route: MAYJI FSM LIT SQS MEI ACORI BULZI NICKI Q81 ENDEW JUULI SSCOT5


Current Weather Information
KTUL 250953Z 16006KT 10SM BKN008 OVC210 19/19 A2996 RMK AO2 SLP139 BKN V OVC T01940189
KMIA 250953Z 05005KT 10SM SCT033 25/18 A3003 RMK AO2 SLP170 T02500178 $